Wind From: 13-12-2017 10:08 Until: 14-12-2017 06:00 warning for: Wind Level: Yellow info button

Although rather usual in this region, locally or potentially dangerous phenomena are expected. (such as local winds, summer thunderstorms, rising streams or high waves) Be aware and pay attention to the latest weather updates, especially if you carry out activities exposed to weather or close to a stream or shoreline. 


Meteo18 Weather Cam more information Meteo18 Weather Cam


Thunder radar more information blitzortung!


Rain radar more information rain snow radar


Visit our other weather sites:

Template documentation
and downloads

And another site



Weather Underground History page Text

Daily Summary for July 15, 2016 Units:  Metric    English   Both
« Previous Day
Next Day »
Daily Weekly Monthly Yearly Custom
  High: Low: Average:
Temperature: 23.9 °C 8.8 °C 16.2 °C
Dew Point: 12.2 °C 7.8 °C 9.6 °C
Humidity: 96 % 38 % 69 %
Wind Speed: 9.7 km/h 0.0 km/h 1 km/h
Wind Gust: 12.9 km/h - -
Wind:- - ENE
Pressure: 1027.7 hPa 1026.0 hPa -
Precipitation: 0.0 mm    
Historical Graphs
 
 
Tabular Data for July 15, 2016
Time Temperature Dew Point Pressure Wind Wind Speed Wind Gust Humidity Rainfall Rate (Hourly)
00:02 10.6 °C 9.4 °C 1026.0 hPa Calm     92 % 0.0 mm
00:12 10.4 °C 9.2 °C 1026.0 hPa Calm     92 % 0.0 mm
00:17 10.2 °C 9.0 °C 1026.0 hPa Calm     92 % 0.0 mm
00:22 10.2 °C 9.1 °C 1026.0 hPa Calm     93 % 0.0 mm
00:27 10.2 °C 9.1 °C 1026.0 hPa Calm     93 % 0.0 mm
00:32 10.2 °C 9.3 °C 1026.0 hPa Calm     94 % 0.0 mm
00:37 10.3 °C 9.2 °C 1026.0 hPa Calm     93 % 0.0 mm
00:42 10.2 °C 9.1 °C 1026.0 hPa Calm     93 % 0.0 mm
00:47 10.2 °C 9.1 °C 1026.0 hPa Calm     93 % 0.0 mm
00:52 10.2 °C 9.3 °C 1026.0 hPa Calm     94 % 0.0 mm
00:57 10.2 °C 9.1 °C 1026.0 hPa Calm     93 % 0.0 mm
01:02 10.0 °C 8.9 °C 1026.0 hPa Calm     93 % 0.0 mm
01:07 9.8 °C 8.7 °C 1026.0 hPa Calm     93 % 0.0 mm
01:12 9.8 °C 8.7 °C 1026.0 hPa Calm     93 % 0.0 mm
01:17 9.8 °C 8.7 °C 1026.3 hPa Calm     93 % 0.0 mm
01:22 9.7 °C 8.8 °C 1026.0 hPa Calm     94 % 0.0 mm
01:32 9.6 °C 8.7 °C 1026.3 hPa Calm     94 % 0.0 mm
01:42 9.8 °C 8.9 °C 1026.3 hPa Calm     94 % 0.0 mm
01:52 9.8 °C 8.9 °C 1026.3 hPa Calm     94 % 0.0 mm
01:57 9.7 °C 8.8 °C 1026.3 hPa Calm     94 % 0.0 mm
02:02 9.7 °C 8.8 °C 1026.0 hPa Calm     94 % 0.0 mm
02:07 9.6 °C 8.7 °C 1026.0 hPa Calm     94 % 0.0 mm
02:12 9.3 °C 8.4 °C 1026.0 hPa Calm     94 % 0.0 mm
02:17 9.3 °C 8.4 °C 1026.0 hPa Calm     94 % 0.0 mm
02:22 9.2 °C 8.3 °C 1026.0 hPa Calm     94 % 0.0 mm
02:32 9.2 °C 8.4 °C 1026.3 hPa Calm     95 % 0.0 mm
02:37 9.2 °C 8.3 °C 1026.3 hPa Calm     94 % 0.0 mm
02:42 9.2 °C 8.4 °C 1026.3 hPa Calm     95 % 0.0 mm
02:47 9.2 °C 8.4 °C 1026.0 hPa Calm     95 % 0.0 mm
02:52 9.2 °C 8.4 °C 1026.0 hPa Calm     95 % 0.0 mm
02:57 9.3 °C 8.5 °C 1026.0 hPa Calm     95 % 0.0 mm
03:02 9.3 °C 8.5 °C 1026.0 hPa Calm     95 % 0.0 mm
03:07 9.4 °C 8.6 °C 1026.0 hPa Calm     95 % 0.0 mm
03:12 9.5 °C 8.7 °C 1026.0 hPa Calm     95 % 0.0 mm
03:17 9.4 °C 8.6 °C 1026.0 hPa Calm     95 % 0.0 mm
03:22 9.3 °C 8.5 °C 1026.0 hPa Calm     95 % 0.0 mm
03:32 9.8 °C 9.2 °C 1026.0 hPa Calm     96 % 0.0 mm
03:37 10.1 °C 9.3 °C 1026.0 hPa Calm     95 % 0.0 mm
03:42 10.2 °C 9.3 °C 1026.0 hPa Calm     94 % 0.0 mm
03:47 10.2 °C 9.1 °C 1026.0 hPa Calm   1.6 km/h 93 % 0.0 mm
03:52 10.3 °C 9.2 °C 1026.0 hPa Calm   1.6 km/h 93 % 0.0 mm
03:57 10.3 °C 9.1 °C 1026.0 hPa Calm   1.6 km/h 92 % 0.0 mm
04:02 10.3 °C 9.1 °C 1026.0 hPa Calm     92 % 0.0 mm
04:07 10.3 °C 9.1 °C 1026.0 hPa Calm     92 % 0.0 mm
04:12 10.3 °C 9.1 °C 1026.0 hPa Calm     92 % 0.0 mm
04:17 10.3 °C 9.1 °C 1026.3 hPa Calm     92 % 0.0 mm
04:22 10.3 °C 9.1 °C 1026.3 hPa Calm     92 % 0.0 mm
04:32 10.3 °C 8.9 °C 1026.3 hPa Calm     91 % 0.0 mm
04:37 10.2 °C 8.8 °C 1026.3 hPa Calm     91 % 0.0 mm
04:42 10.1 °C 8.9 °C 1026.3 hPa Calm     92 % 0.0 mm
04:47 9.9 °C 8.5 °C 1026.3 hPa Calm     91 % 0.0 mm
04:52 9.7 °C 8.5 °C 1026.3 hPa Calm     92 % 0.0 mm
04:57 9.6 °C 8.4 °C 1026.3 hPa Calm     92 % 0.0 mm
05:02 9.5 °C 8.3 °C 1026.3 hPa Calm     92 % 0.0 mm
05:07 9.3 °C 8.1 °C 1026.3 hPa Calm     92 % 0.0 mm
05:12 9.2 °C 8.1 °C 1026.3 hPa Calm     93 % 0.0 mm
05:17 9.1 °C 8.0 °C 1026.3 hPa Calm     93 % 0.0 mm
05:22 9.0 °C 7.9 °C 1026.3 hPa Calm     93 % 0.0 mm
05:27 9.0 °C 8.1 °C 1026.3 hPa Calm     94 % 0.0 mm
05:32 8.9 °C 7.8 °C 1026.3 hPa Calm     93 % 0.0 mm
05:37 8.8 °C 7.9 °C 1026.3 hPa Calm     94 % 0.0 mm
05:42 8.9 °C 8.0 °C 1026.3 hPa Calm     94 % 0.0 mm
05:52 9.3 °C 8.5 °C 1026.3 hPa Calm     95 % 0.0 mm
05:57 9.4 °C 8.6 °C 1026.3 hPa Calm     95 % 0.0 mm
06:02 9.4 °C 8.5 °C 1026.3 hPa Calm     94 % 0.0 mm
06:07 9.4 °C 8.5 °C 1026.3 hPa Calm     94 % 0.0 mm
06:12 9.4 °C 8.5 °C 1026.3 hPa Calm     94 % 0.0 mm
06:17 9.5 °C 8.6 °C 1026.6 hPa Calm     94 % 0.0 mm
06:22 9.6 °C 8.7 °C 1026.3 hPa Calm     94 % 0.0 mm
06:27 9.6 °C 8.7 °C 1026.3 hPa Calm     94 % 0.0 mm
06:32 9.5 °C 8.6 °C 1026.6 hPa Calm     94 % 0.0 mm
06:37 9.3 °C 8.4 °C 1026.6 hPa Calm     94 % 0.0 mm
06:42 9.2 °C 8.3 °C 1026.6 hPa Calm     94 % 0.0 mm
06:47 9.1 °C 8.2 °C 1026.6 hPa Calm     94 % 0.0 mm
06:52 9.2 °C 8.4 °C 1026.6 hPa Calm     95 % 0.0 mm
06:57 9.6 °C 9.0 °C 1026.6 hPa Calm     96 % 0.0 mm
07:02 9.8 °C 9.2 °C 1027.0 hPa Calm     96 % 0.0 mm
07:07 10.1 °C 9.5 °C 1027.0 hPa Calm     96 % 0.0 mm
07:12 10.2 °C 9.6 °C 1027.0 hPa Calm     96 % 0.0 mm
07:17 10.4 °C 9.8 °C 1027.0 hPa Calm     96 % 0.0 mm
07:22 10.6 °C 10.0 °C 1027.0 hPa Calm     96 % 0.0 mm
07:37 11.0 °C 10.2 °C 1027.0 hPa Calm     95 % 0.0 mm
07:42 11.1 °C 10.3 °C 1027.0 hPa Calm     95 % 0.0 mm
07:47 11.3 °C 10.5 °C 1027.0 hPa Calm     95 % 0.0 mm
07:52 11.6 °C 10.8 °C 1027.0 hPa Calm     95 % 0.0 mm
07:57 11.9 °C 11.0 °C 1027.0 hPa Calm     94 % 0.0 mm
08:02 12.1 °C 11.2 °C 1027.0 hPa Calm     94 % 0.0 mm
08:07 12.2 °C 10.9 °C 1027.0 hPa Calm     92 % 0.0 mm
08:12 12.4 °C 11.1 °C 1027.0 hPa Calm     92 % 0.0 mm
08:17 12.7 °C 11.3 °C 1027.0 hPa Calm     91 % 0.0 mm
08:22 12.9 °C 11.3 °C 1027.0 hPa Calm     90 % 0.0 mm
08:27 13.1 °C 11.3 °C 1027.3 hPa Calm     89 % 0.0 mm
08:37 13.4 °C 11.5 °C 1027.3 hPa Calm     88 % 0.0 mm
08:42 13.6 °C 11.5 °C 1027.3 hPa Calm     87 % 0.0 mm
08:47 13.8 °C 11.5 °C 1027.3 hPa Calm     86 % 0.0 mm
08:52 13.9 °C 11.4 °C 1027.7 hPa Calm     85 % 0.0 mm
08:57 14.2 °C 11.5 °C 1027.7 hPa Calm     84 % 0.0 mm
09:02 14.6 °C 11.7 °C 1027.7 hPa Calm     83 % 0.0 mm
09:07 14.8 °C 11.9 °C 1027.7 hPa Calm     83 % 0.0 mm
09:12 15.1 °C 11.5 °C 1027.7 hPa NE 1.6 km/h 1.6 km/h 79 % 0.0 mm
09:17 15.4 °C 11.6 °C 1027.7 hPa ESE 1.6 km/h 4.8 km/h 78 % 0.0 mm
09:22 15.8 °C 11.6 °C 1027.7 hPa ENE 1.6 km/h 4.8 km/h 76 % 0.0 mm
09:27 16.0 °C 11.4 °C 1027.7 hPa ESE 1.6 km/h 4.8 km/h 74 % 0.0 mm
09:32 16.2 °C 11.4 °C 1027.7 hPa Calm   4.8 km/h 73 % 0.0 mm
09:37 16.4 °C 11.3 °C 1027.7 hPa Calm   6.4 km/h 72 % 0.0 mm
09:42 16.8 °C 11.9 °C 1027.7 hPa Calm   6.4 km/h 73 % 0.0 mm
09:47 17.4 °C 11.9 °C 1027.7 hPa Calm   6.4 km/h 70 % 0.0 mm
09:52 17.4 °C 11.2 °C 1027.7 hPa NE 4.8 km/h 4.8 km/h 67 % 0.0 mm
09:57 17.5 °C 11.7 °C 1027.7 hPa Calm   6.4 km/h 69 % 0.0 mm
10:02 18.0 °C 11.8 °C 1027.7 hPa East 1.6 km/h 6.4 km/h 67 % 0.0 mm
10:07 18.1 °C 11.6 °C 1027.7 hPa East 3.2 km/h 6.4 km/h 66 % 0.0 mm
10:17 18.6 °C 11.7 °C 1027.3 hPa Calm   6.4 km/h 64 % 0.0 mm
10:22 18.9 °C 11.7 °C 1027.7 hPa NE 3.2 km/h 6.4 km/h 63 % 0.0 mm
10:27 19.1 °C 11.6 °C 1027.7 hPa Calm   6.4 km/h 62 % 0.0 mm
10:32 19.4 °C 11.7 °C 1027.7 hPa ESE 3.2 km/h 6.4 km/h 61 % 0.0 mm
10:37 19.4 °C 10.7 °C 1027.7 hPa NNW 1.6 km/h 6.4 km/h 57 % 0.0 mm
10:42 19.4 °C 10.9 °C 1027.7 hPa ENE 3.2 km/h 4.8 km/h 58 % 0.0 mm
10:47 19.6 °C 11.1 °C 1027.7 hPa East 1.6 km/h 8.0 km/h 58 % 0.0 mm
10:52 19.6 °C 11.1 °C 1027.7 hPa ESE 1.6 km/h 8.0 km/h 58 % 0.0 mm
10:57 19.5 °C 10.8 °C 1027.7 hPa Calm   11.3 km/h 57 % 0.0 mm
11:02 19.6 °C 11.6 °C 1027.7 hPa Calm   11.3 km/h 60 % 0.0 mm
11:07 20.2 °C 12.2 °C 1027.7 hPa ENE 1.6 km/h 6.4 km/h 60 % 0.0 mm
11:12 20.3 °C 11.5 °C 1027.7 hPa NNE 1.6 km/h 6.4 km/h 57 % 0.0 mm
11:17 20.4 °C 10.8 °C 1027.7 hPa East 1.6 km/h 8.0 km/h 54 % 0.0 mm
11:22 20.4 °C 11.1 °C 1027.7 hPa Calm   8.0 km/h 55 % 0.0 mm
11:27 20.7 °C 11.1 °C 1027.7 hPa NNW 3.2 km/h 8.0 km/h 54 % 0.0 mm
11:32 20.7 °C 10.8 °C 1027.3 hPa NE 4.8 km/h 9.7 km/h 53 % 0.0 mm
11:37 20.8 °C 11.4 °C 1027.3 hPa NE 4.8 km/h 11.3 km/h 55 % 0.0 mm
11:47 19.8 °C 10.8 °C 1027.3 hPa ENE 1.6 km/h 11.3 km/h 56 % 0.0 mm
11:52 19.6 °C 10.0 °C 1027.3 hPa East 3.2 km/h 8.0 km/h 54 % 0.0 mm
11:57 19.5 °C 10.5 °C 1027.3 hPa ESE 1.6 km/h 6.4 km/h 56 % 0.0 mm
12:02 19.9 °C 9.8 °C 1027.3 hPa ESE 4.8 km/h 9.7 km/h 52 % 0.0 mm
12:07 20.4 °C 9.6 °C 1027.3 hPa NE 3.2 km/h 11.3 km/h 50 % 0.0 mm
12:12 20.8 °C 10.9 °C 1027.3 hPa NE 4.8 km/h 11.3 km/h 53 % 0.0 mm
12:17 21.3 °C 10.5 °C 1027.3 hPa Calm   11.3 km/h 50 % 0.0 mm
12:22 21.6 °C 11.3 °C 1027.3 hPa NE 8.0 km/h 11.3 km/h 52 % 0.0 mm
12:32 21.1 °C 10.3 °C 1027.3 hPa NE 6.4 km/h 11.3 km/h 50 % 0.0 mm
12:37 20.3 °C 10.4 °C 1027.3 hPa East 3.2 km/h 11.3 km/h 53 % 0.0 mm
12:42 19.6 °C 10.3 °C 1027.3 hPa ESE 1.6 km/h 8.0 km/h 55 % 0.0 mm
12:47 19.2 °C 10.2 °C 1027.3 hPa ENE 1.6 km/h 8.0 km/h 56 % 0.0 mm
12:52 19.2 °C 10.2 °C 1027.3 hPa Calm   6.4 km/h 56 % 0.0 mm
12:57 19.6 °C 11.1 °C 1027.3 hPa NE 3.2 km/h 3.2 km/h 58 % 0.0 mm
13:02 19.8 °C 10.2 °C 1027.3 hPa ENE 3.2 km/h 9.7 km/h 54 % 0.0 mm
13:12 20.2 °C 10.9 °C 1027.0 hPa Calm   9.7 km/h 55 % 0.0 mm
13:17 21.2 °C 11.5 °C 1027.3 hPa East 3.2 km/h 8.0 km/h 54 % 0.0 mm
13:22 21.6 °C 10.1 °C 1027.3 hPa ENE 1.6 km/h 8.0 km/h 48 % 0.0 mm
13:32 22.4 °C 11.2 °C 1027.3 hPa ENE 6.4 km/h 9.7 km/h 49 % 0.0 mm
13:42 22.3 °C 10.8 °C 1027.3 hPa East 3.2 km/h 12.9 km/h 48 % 0.0 mm
13:47 21.9 °C 10.1 °C 1027.3 hPa Calm   12.9 km/h 47 % 0.0 mm
13:52 22.3 °C 9.8 °C 1027.0 hPa East 1.6 km/h 11.3 km/h 45 % 0.0 mm
14:02 22.4 °C 9.9 °C 1027.0 hPa NE 3.2 km/h 8.0 km/h 45 % 0.0 mm
14:12 21.8 °C 9.3 °C 1027.0 hPa Calm   8.0 km/h 45 % 0.0 mm
14:17 21.2 °C 9.4 °C 1027.0 hPa Calm   8.0 km/h 47 % 0.0 mm
14:22 20.7 °C 9.3 °C 1027.0 hPa NE 3.2 km/h 4.8 km/h 48 % 0.0 mm
14:32 22.3 °C 8.8 °C 1027.0 hPa Calm   6.4 km/h 42 % 0.0 mm
14:37 23.2 °C 10.3 °C 1027.0 hPa Calm   6.4 km/h 44 % 0.0 mm
14:42 23.4 °C 10.5 °C 1027.0 hPa NE 1.6 km/h 9.7 km/h 44 % 0.0 mm
14:47 22.6 °C 9.7 °C 1027.0 hPa ENE 3.2 km/h 9.7 km/h 44 % 0.0 mm
14:52 22.7 °C 11.1 °C 1027.0 hPa Calm   9.7 km/h 48 % 0.0 mm
14:57 23.3 °C 9.3 °C 1027.0 hPa Calm   6.4 km/h 41 % 0.0 mm
15:02 22.9 °C 9.3 °C 1027.0 hPa ENE 3.2 km/h 11.3 km/h 42 % 0.0 mm
15:07 22.9 °C 9.3 °C 1026.6 hPa East 1.6 km/h 11.3 km/h 42 % 0.0 mm
15:12 23.2 °C 10.6 °C 1026.6 hPa ENE 1.6 km/h 11.3 km/h 45 % 0.0 mm
15:17 23.5 °C 9.8 °C 1026.6 hPa NE 1.6 km/h 11.3 km/h 42 % 0.0 mm
15:22 23.7 °C 9.7 °C 1026.6 hPa WSW 1.6 km/h 11.3 km/h 41 % 0.0 mm
15:27 23.2 °C 9.2 °C 1026.6 hPa NNE 1.6 km/h 6.4 km/h 41 % 0.0 mm
15:32 22.8 °C 9.2 °C 1026.6 hPa ENE 1.6 km/h 6.4 km/h 42 % 0.0 mm
15:37 22.9 °C 8.9 °C 1026.6 hPa NE 3.2 km/h 8.0 km/h 41 % 0.0 mm
15:47 23.2 °C 8.5 °C 1026.6 hPa NE 8.0 km/h 8.0 km/h 39 % 0.0 mm
15:52 22.7 °C 9.5 °C 1026.6 hPa NE 8.0 km/h 11.3 km/h 43 % 0.0 mm
15:57 23.2 °C 9.2 °C 1026.6 hPa ENE 1.6 km/h 11.3 km/h 41 % 0.0 mm
16:02 22.8 °C 8.1 °C 1026.6 hPa ENE 3.2 km/h 11.3 km/h 39 % 0.0 mm
16:12 22.8 °C 8.5 °C 1026.6 hPa ENE 1.6 km/h 9.7 km/h 40 % 0.0 mm
16:17 23.1 °C 10.5 °C 1026.6 hPa Calm   9.7 km/h 45 % 0.0 mm
16:22 23.4 °C 9.4 °C 1026.6 hPa Calm   9.7 km/h 41 % 0.0 mm
16:27 23.3 °C 8.2 °C 1026.6 hPa NE 3.2 km/h 9.7 km/h 38 % 0.0 mm
16:32 23.2 °C 9.6 °C 1026.3 hPa NE 3.2 km/h 12.9 km/h 42 % 0.0 mm
16:37 23.4 °C 9.4 °C 1026.3 hPa Calm   12.9 km/h 41 % 0.0 mm
16:42 23.7 °C 10.0 °C 1026.3 hPa NE 6.4 km/h 12.9 km/h 42 % 0.0 mm
16:52 23.9 °C 8.7 °C 1026.3 hPa ENE 6.4 km/h 11.3 km/h 38 % 0.0 mm
16:57 23.7 °C 9.7 °C 1026.3 hPa NE 4.8 km/h 8.0 km/h 41 % 0.0 mm
17:02 23.4 °C 8.7 °C 1026.3 hPa NE 4.8 km/h 12.9 km/h 39 % 0.0 mm
17:07 22.6 °C 7.9 °C 1026.3 hPa Calm   12.9 km/h 39 % 0.0 mm
17:12 22.6 °C 8.7 °C 1026.3 hPa ESE 1.6 km/h 12.9 km/h 41 % 0.0 mm
17:17 23.1 °C 9.8 °C 1026.3 hPa Calm   9.7 km/h 43 % 0.0 mm
17:22 23.3 °C 8.9 °C 1026.3 hPa Calm   9.7 km/h 40 % 0.0 mm
17:27 23.7 °C 10.0 °C 1026.3 hPa Calm   9.7 km/h 42 % 0.0 mm
17:32 23.0 °C 9.4 °C 1026.3 hPa NE 1.6 km/h 6.4 km/h 42 % 0.0 mm
17:37 22.1 °C 9.3 °C 1026.3 hPa Calm   8.0 km/h 44 % 0.0 mm
17:42 21.9 °C 9.1 °C 1026.3 hPa NE 9.7 km/h 9.7 km/h 44 % 0.0 mm
17:47 22.6 °C 9.4 °C 1026.3 hPa NE 1.6 km/h 9.7 km/h 43 % 0.0 mm
17:52 22.9 °C 9.3 °C 1026.3 hPa East 3.2 km/h 9.7 km/h 42 % 0.0 mm
17:57 23.2 °C 8.5 °C 1026.3 hPa Calm   9.7 km/h 39 % 0.0 mm
18:02 23.3 °C 8.9 °C 1026.0 hPa Calm   9.7 km/h 40 % 0.0 mm
18:07 23.4 °C 8.7 °C 1026.0 hPa NE 3.2 km/h 9.7 km/h 39 % 0.0 mm
18:12 23.2 °C 8.9 °C 1026.0 hPa Calm   4.8 km/h 40 % 0.0 mm
18:17 23.1 °C 9.1 °C 1026.0 hPa ENE 4.8 km/h 4.8 km/h 41 % 0.0 mm
18:22 23.1 °C 9.5 °C 1026.0 hPa Calm   8.0 km/h 42 % 0.0 mm
18:32 22.3 °C 9.5 °C 1026.0 hPa ENE 4.8 km/h 12.9 km/h 44 % 0.0 mm
18:37 22.3 °C 8.8 °C 1026.0 hPa NE 1.6 km/h 12.9 km/h 42 % 0.0 mm
18:42 22.3 °C 8.8 °C 1026.0 hPa NE 3.2 km/h 11.3 km/h 42 % 0.0 mm
18:47 22.3 °C 8.8 °C 1026.0 hPa NE 3.2 km/h 6.4 km/h 42 % 0.0 mm
18:52 22.4 °C 10.2 °C 1026.0 hPa NE 3.2 km/h 6.4 km/h 46 % 0.0 mm
18:57 22.2 °C 8.0 °C 1026.0 hPa Calm   6.4 km/h 40 % 0.0 mm
19:02 21.9 °C 8.8 °C 1026.0 hPa NE 1.6 km/h 6.4 km/h 43 % 0.0 mm
19:07 21.8 °C 8.3 °C 1026.0 hPa Calm   6.4 km/h 42 % 0.0 mm
19:12 21.8 °C 8.3 °C 1026.0 hPa Calm   4.8 km/h 42 % 0.0 mm
19:17 21.7 °C 9.2 °C 1026.0 hPa Calm   4.8 km/h 45 % 0.0 mm
19:22 21.6 °C 8.8 °C 1026.0 hPa Calm   4.8 km/h 44 % 0.0 mm
19:27 21.4 °C 9.0 °C 1026.0 hPa Calm   4.8 km/h 45 % 0.0 mm
19:32 21.2 °C 8.8 °C 1026.0 hPa ENE 6.4 km/h 6.4 km/h 45 % 0.0 mm
19:37 21.2 °C 8.5 °C 1026.0 hPa NE 4.8 km/h 6.4 km/h 44 % 0.0 mm
19:42 21.0 °C 8.3 °C 1026.0 hPa Calm   8.0 km/h 44 % 0.0 mm
19:47 20.9 °C 8.2 °C 1026.0 hPa NE 1.6 km/h 8.0 km/h 44 % 0.0 mm
19:52 20.8 °C 8.1 °C 1026.0 hPa ENE 1.6 km/h 8.0 km/h 44 % 0.0 mm
19:57 20.8 °C 8.1 °C 1026.0 hPa East 1.6 km/h 6.4 km/h 44 % 0.0 mm
20:02 20.6 °C 8.6 °C 1026.0 hPa ESE 1.6 km/h 8.0 km/h 46 % 0.0 mm
20:07 20.4 °C 8.4 °C 1026.0 hPa NE 3.2 km/h 8.0 km/h 46 % 0.0 mm
20:12 20.3 °C 8.3 °C 1026.0 hPa Calm   8.0 km/h 46 % 0.0 mm
20:17 20.2 °C 8.5 °C 1026.0 hPa Calm   6.4 km/h 47 % 0.0 mm
20:22 20.2 °C 8.8 °C 1026.0 hPa NE 1.6 km/h 6.4 km/h 48 % 0.0 mm
20:32 20.2 °C 8.8 °C 1026.0 hPa ENE 3.2 km/h 6.4 km/h 48 % 0.0 mm
20:42 19.9 °C 9.2 °C 1026.0 hPa Calm   6.4 km/h 50 % 0.0 mm
20:47 19.8 °C 8.8 °C 1026.0 hPa NE 1.6 km/h 6.4 km/h 49 % 0.0 mm
20:52 19.6 °C 8.9 °C 1026.0 hPa Calm   3.2 km/h 50 % 0.0 mm
20:57 19.4 °C 9.6 °C 1026.0 hPa Calm   3.2 km/h 53 % 0.0 mm
21:02 19.1 °C 9.6 °C 1026.0 hPa Calm   3.2 km/h 54 % 0.0 mm
21:07 18.8 °C 9.6 °C 1026.0 hPa Calm   3.2 km/h 55 % 0.0 mm
21:12 18.5 °C 9.6 °C 1026.0 hPa Calm   1.6 km/h 56 % 0.0 mm
21:17 18.2 °C 9.5 °C 1026.0 hPa Calm   1.6 km/h 57 % 0.0 mm
21:22 17.9 °C 9.8 °C 1026.0 hPa Calm   1.6 km/h 59 % 0.0 mm
21:32 17.2 °C 9.9 °C 1026.0 hPa Calm     62 % 0.0 mm
21:37 16.9 °C 9.8 °C 1026.0 hPa Calm     63 % 0.0 mm
21:42 16.7 °C 10.1 °C 1026.0 hPa Calm     65 % 0.0 mm
21:47 16.4 °C 10.5 °C 1026.0 hPa Calm     68 % 0.0 mm
21:52 16.1 °C 10.6 °C 1026.3 hPa Calm     70 % 0.0 mm
21:57 15.8 °C 10.3 °C 1026.3 hPa Calm     70 % 0.0 mm
22:02 15.5 °C 10.3 °C 1026.3 hPa Calm     71 % 0.0 mm
22:07 15.2 °C 10.2 °C 1026.3 hPa Calm     72 % 0.0 mm
22:12 14.9 °C 10.1 °C 1026.0 hPa Calm     73 % 0.0 mm
22:17 14.7 °C 9.9 °C 1026.3 hPa Calm     73 % 0.0 mm
22:22 14.4 °C 9.8 °C 1026.3 hPa Calm     74 % 0.0 mm
22:32 14.2 °C 10.0 °C 1026.3 hPa Calm   1.6 km/h 76 % 0.0 mm
22:42 13.9 °C 9.9 °C 1026.3 hPa Calm   1.6 km/h 77 % 0.0 mm
22:47 13.6 °C 9.8 °C 1026.3 hPa Calm     78 % 0.0 mm
22:52 13.4 °C 9.8 °C 1026.3 hPa Calm     79 % 0.0 mm
22:57 13.2 °C 9.6 °C 1026.3 hPa Calm     79 % 0.0 mm
23:02 13.1 °C 9.9 °C 1026.3 hPa Calm     81 % 0.0 mm
23:07 12.8 °C 9.6 °C 1026.3 hPa Calm     81 % 0.0 mm
23:12 12.7 °C 9.7 °C 1026.3 hPa Calm     82 % 0.0 mm
23:17 12.6 °C 9.6 °C 1026.3 hPa Calm     82 % 0.0 mm
23:22 12.6 °C 9.6 °C 1026.3 hPa Calm     82 % 0.0 mm
23:27 12.5 °C 9.7 °C 1026.0 hPa Calm     83 % 0.0 mm
23:32 12.4 °C 9.6 °C 1026.0 hPa Calm     83 % 0.0 mm
23:37 12.3 °C 9.5 °C 1026.0 hPa Calm     83 % 0.0 mm
23:42 12.3 °C 9.5 °C 1026.0 hPa Calm     83 % 0.0 mm
23:52 12.3 °C 9.7 °C 1026.0 hPa Calm     84 % 0.0 mm
23:57 12.2 °C 9.6 °C 1026.3 hPa Calm     84 % 0.0 mm
Meteo18
Compliments of Weather Underground - 4 mb

Script developed by  Jim McMurry - jmcmurry@mwt.net Adapted for the template by  Wim van der Kuil - Leuven-Template.eu

You find our weather info also at:

European Weather Network

Weather Underground

Equipment we use:

Weather-station
Davis Vue

Weather-program
Meteohub

Weather-server
Raspberry PI 2 B+

Provider
1 and 1

Davis Vue

Meteohub

Raspberry PI 2 B+

1 and 1